sensor_id;sensor_type;location;lat;lon;timestamp;P1;durP1;ratioP1;P2;durP2;ratioP2
24008;SDS011;12217;50.792;4.372;2022-09-09T00:00:11;3.35;;;1.50;;
24008;SDS011;12217;50.792;4.372;2022-09-09T00:02:39;4.65;;;1.50;;
24008;SDS011;12217;50.792;4.372;2022-09-09T00:08:15;3.47;;;1.70;;
24008;SDS011;12217;50.792;4.372;2022-09-09T00:10:45;4.25;;;1.20;;
24008;SDS011;12217;50.792;4.372;2022-09-09T00:13:28;2.97;;;1.30;;
24008;SDS011;12217;50.792;4.372;2022-09-09T00:21:33;3.25;;;1.30;;
24008;SDS011;12217;50.792;4.372;2022-09-09T00:24:04;3.05;;;1.13;;
24008;SDS011;12217;50.792;4.372;2022-09-09T00:26:47;5.63;;;1.50;;
24008;SDS011;12217;50.792;4.372;2022-09-09T00:31:55;4.95;;;1.40;;
24008;SDS011;12217;50.792;4.372;2022-09-09T00:34:24;5.28;;;1.35;;
24008;SDS011;12217;50.792;4.372;2022-09-09T00:36:53;4.00;;;1.55;;
24008;SDS011;12217;50.792;4.372;2022-09-09T00:44:34;6.22;;;1.85;;
24008;SDS011;12217;50.792;4.372;2022-09-09T00:52:48;3.95;;;1.33;;
24008;SDS011;12217;50.792;4.372;2022-09-09T00:55:48;4.32;;;1.35;;
24008;SDS011;12217;50.792;4.372;2022-09-09T00:58:25;5.18;;;1.48;;
24008;SDS011;12217;50.792;4.372;2022-09-09T01:00:55;4.40;;;1.30;;
24008;SDS011;12217;50.792;4.372;2022-09-09T01:03:38;5.25;;;1.50;;
24008;SDS011;12217;50.792;4.372;2022-09-09T01:11:22;4.60;;;1.40;;
24008;SDS011;12217;50.792;4.372;2022-09-09T01:16:56;6.30;;;1.70;;
24008;SDS011;12217;50.792;4.372;2022-09-09T01:19:27;5.40;;;1.67;;
24008;SDS011;12217;50.792;4.372;2022-09-09T01:22:21;6.80;;;1.38;;
24008;SDS011;12217;50.792;4.372;2022-09-09T01:27:43;7.13;;;1.60;;
24008;SDS011;12217;50.792;4.372;2022-09-09T01:30:13;4.70;;;1.55;;
24008;SDS011;12217;50.792;4.372;2022-09-09T01:32:45;9.50;;;1.98;;
24008;SDS011;12217;50.792;4.372;2022-09-09T01:38:03;7.45;;;1.90;;
24008;SDS011;12217;50.792;4.372;2022-09-09T01:40:30;6.90;;;1.80;;
24008;SDS011;12217;50.792;4.372;2022-09-09T01:42:55;3.28;;;1.70;;
24008;SDS011;12217;50.792;4.372;2022-09-09T01:45:22;5.65;;;1.75;;
24008;SDS011;12217;50.792;4.372;2022-09-09T01:47:48;5.78;;;1.95;;
24008;SDS011;12217;50.792;4.372;2022-09-09T01:50:14;7.68;;;2.05;;
24008;SDS011;12217;50.792;4.372;2022-09-09T01:52:42;6.45;;;2.22;;
24008;SDS011;12217;50.792;4.372;2022-09-09T01:55:10;7.85;;;2.03;;
24008;SDS011;12217;50.792;4.372;2022-09-09T01:57:49;7.00;;;2.00;;
24008;SDS011;12217;50.792;4.372;2022-09-09T02:00:44;9.35;;;2.33;;
24008;SDS011;12217;50.792;4.372;2022-09-09T02:03:24;6.95;;;2.05;;
24008;SDS011;12217;50.792;4.372;2022-09-09T02:08:52;7.43;;;1.90;;
24008;SDS011;12217;50.792;4.372;2022-09-09T02:11:24;7.72;;;2.15;;
24008;SDS011;12217;50.792;4.372;2022-09-09T02:13:53;9.93;;;2.33;;
24008;SDS011;12217;50.792;4.372;2022-09-09T02:19:13;8.63;;;1.88;;
24008;SDS011;12217;50.792;4.372;2022-09-09T02:21:48;6.55;;;2.30;;
24008;SDS011;12217;50.792;4.372;2022-09-09T02:24:15;6.18;;;2.03;;
24008;SDS011;12217;50.792;4.372;2022-09-09T02:26:41;9.32;;;2.28;;
24008;SDS011;12217;50.792;4.372;2022-09-09T02:29:14;10.52;;;2.22;;
24008;SDS011;12217;50.792;4.372;2022-09-09T02:31:47;9.13;;;2.20;;
24008;SDS011;12217;50.792;4.372;2022-09-09T02:34:14;7.03;;;1.90;;
24008;SDS011;12217;50.792;4.372;2022-09-09T02:36:42;6.07;;;1.83;;
24008;SDS011;12217;50.792;4.372;2022-09-09T02:39:10;8.35;;;2.10;;
24008;SDS011;12217;50.792;4.372;2022-09-09T02:41:38;8.63;;;1.98;;
24008;SDS011;12217;50.792;4.372;2022-09-09T02:44:05;9.25;;;2.10;;
24008;SDS011;12217;50.792;4.372;2022-09-09T02:52:08;8.93;;;2.00;;
24008;SDS011;12217;50.792;4.372;2022-09-09T02:54:40;5.97;;;2.00;;
24008;SDS011;12217;50.792;4.372;2022-09-09T02:57:12;9.30;;;2.20;;
24008;SDS011;12217;50.792;4.372;2022-09-09T02:59:43;10.60;;;2.38;;
24008;SDS011;12217;50.792;4.372;2022-09-09T03:02:10;7.53;;;2.00;;
24008;SDS011;12217;50.792;4.372;2022-09-09T03:04:36;9.30;;;2.10;;
24008;SDS011;12217;50.792;4.372;2022-09-09T03:07:02;12.07;;;2.55;;
24008;SDS011;12217;50.792;4.372;2022-09-09T03:09:28;9.85;;;2.20;;
24008;SDS011;12217;50.792;4.372;2022-09-09T03:11:54;10.40;;;2.40;;
24008;SDS011;12217;50.792;4.372;2022-09-09T03:14:20;6.00;;;2.10;;
24008;SDS011;12217;50.792;4.372;2022-09-09T03:16:49;7.93;;;2.17;;
24008;SDS011;12217;50.792;4.372;2022-09-09T03:19:16;9.23;;;2.28;;
24008;SDS011;12217;50.792;4.372;2022-09-09T03:21:43;8.50;;;2.05;;
24008;SDS011;12217;50.792;4.372;2022-09-09T03:24:09;9.88;;;2.20;;
24008;SDS011;12217;50.792;4.372;2022-09-09T03:26:35;9.20;;;2.47;;
24008;SDS011;12217;50.792;4.372;2022-09-09T03:29:02;9.07;;;2.65;;
24008;SDS011;12217;50.792;4.372;2022-09-09T03:31:31;13.48;;;3.10;;
24008;SDS011;12217;50.792;4.372;2022-09-09T03:34:01;12.02;;;2.20;;
24008;SDS011;12217;50.792;4.372;2022-09-09T03:36:27;9.95;;;2.90;;
24008;SDS011;12217;50.792;4.372;2022-09-09T03:38:53;8.18;;;2.22;;
24008;SDS011;12217;50.792;4.372;2022-09-09T03:41:20;7.88;;;2.00;;
24008;SDS011;12217;50.792;4.372;2022-09-09T03:43:48;8.77;;;2.10;;
24008;SDS011;12217;50.792;4.372;2022-09-09T03:46:18;8.57;;;2.90;;
24008;SDS011;12217;50.792;4.372;2022-09-09T03:48:44;7.35;;;1.98;;
24008;SDS011;12217;50.792;4.372;2022-09-09T03:51:10;8.82;;;2.60;;
24008;SDS011;12217;50.792;4.372;2022-09-09T03:53:36;10.93;;;2.47;;
24008;SDS011;12217;50.792;4.372;2022-09-09T03:56:03;10.98;;;3.13;;
24008;SDS011;12217;50.792;4.372;2022-09-09T03:58:32;12.35;;;2.90;;
24008;SDS011;12217;50.792;4.372;2022-09-09T04:01:00;13.23;;;2.67;;
24008;SDS011;12217;50.792;4.372;2022-09-09T04:03:39;6.88;;;2.13;;
24008;SDS011;12217;50.792;4.372;2022-09-09T04:06:09;12.13;;;2.65;;
24008;SDS011;12217;50.792;4.372;2022-09-09T04:08:36;10.80;;;2.50;;
24008;SDS011;12217;50.792;4.372;2022-09-09T04:11:03;10.70;;;3.13;;
24008;SDS011;12217;50.792;4.372;2022-09-09T04:13:31;10.20;;;2.30;;
24008;SDS011;12217;50.792;4.372;2022-09-09T04:15:59;9.75;;;2.25;;
24008;SDS011;12217;50.792;4.372;2022-09-09T04:18:27;10.73;;;2.50;;
24008;SDS011;12217;50.792;4.372;2022-09-09T04:20:53;10.95;;;2.90;;
24008;SDS011;12217;50.792;4.372;2022-09-09T04:23:21;7.63;;;2.60;;
24008;SDS011;12217;50.792;4.372;2022-09-09T04:25:47;11.50;;;2.80;;
24008;SDS011;12217;50.792;4.372;2022-09-09T04:28:14;12.15;;;2.55;;
24008;SDS011;12217;50.792;4.372;2022-09-09T04:30:41;10.20;;;2.60;;
24008;SDS011;12217;50.792;4.372;2022-09-09T04:33:08;10.05;;;2.60;;
24008;SDS011;12217;50.792;4.372;2022-09-09T04:35:37;10.13;;;3.03;;
24008;SDS011;12217;50.792;4.372;2022-09-09T04:38:04;13.85;;;2.88;;
24008;SDS011;12217;50.792;4.372;2022-09-09T04:40:33;13.80;;;2.80;;
24008;SDS011;12217;50.792;4.372;2022-09-09T04:42:59;10.10;;;2.85;;
24008;SDS011;12217;50.792;4.372;2022-09-09T04:45:25;12.15;;;2.78;;
24008;SDS011;12217;50.792;4.372;2022-09-09T04:47:51;9.52;;;2.92;;
24008;SDS011;12217;50.792;4.372;2022-09-09T04:50:17;10.15;;;2.70;;
24008;SDS011;12217;50.792;4.372;2022-09-09T04:52:43;11.90;;;3.30;;
24008;SDS011;12217;50.792;4.372;2022-09-09T04:55:09;13.23;;;3.20;;
24008;SDS011;12217;50.792;4.372;2022-09-09T04:57:37;9.73;;;2.88;;
24008;SDS011;12217;50.792;4.372;2022-09-09T05:00:04;8.85;;;2.80;;
24008;SDS011;12217;50.792;4.372;2022-09-09T05:02:31;8.85;;;2.67;;
24008;SDS011;12217;50.792;4.372;2022-09-09T05:04:57;11.70;;;2.90;;
24008;SDS011;12217;50.792;4.372;2022-09-09T05:07:23;13.07;;;3.22;;
24008;SDS011;12217;50.792;4.372;2022-09-09T05:09:51;9.02;;;2.90;;
24008;SDS011;12217;50.792;4.372;2022-09-09T05:12:17;11.57;;;3.65;;
24008;SDS011;12217;50.792;4.372;2022-09-09T05:14:43;13.02;;;3.47;;
24008;SDS011;12217;50.792;4.372;2022-09-09T05:17:09;15.85;;;3.13;;
24008;SDS011;12217;50.792;4.372;2022-09-09T05:19:35;10.20;;;3.15;;
24008;SDS011;12217;50.792;4.372;2022-09-09T05:22:01;13.05;;;3.35;;
24008;SDS011;12217;50.792;4.372;2022-09-09T05:24:27;12.95;;;3.13;;
24008;SDS011;12217;50.792;4.372;2022-09-09T05:26:53;12.43;;;3.08;;
24008;SDS011;12217;50.792;4.372;2022-09-09T05:29:23;11.60;;;2.97;;
24008;SDS011;12217;50.792;4.372;2022-09-09T05:31:48;12.65;;;3.33;;
24008;SDS011;12217;50.792;4.372;2022-09-09T05:34:14;11.40;;;3.17;;
24008;SDS011;12217;50.792;4.372;2022-09-09T05:36:39;15.48;;;3.63;;
24008;SDS011;12217;50.792;4.372;2022-09-09T05:39:05;12.30;;;2.60;;
24008;SDS011;12217;50.792;4.372;2022-09-09T05:41:31;10.02;;;3.03;;
24008;SDS011;12217;50.792;4.372;2022-09-09T05:43:56;11.88;;;3.20;;
24008;SDS011;12217;50.792;4.372;2022-09-09T05:46:23;9.27;;;3.10;;
24008;SDS011;12217;50.792;4.372;2022-09-09T05:48:50;10.63;;;3.05;;
24008;SDS011;12217;50.792;4.372;2022-09-09T05:51:20;10.85;;;2.80;;
24008;SDS011;12217;50.792;4.372;2022-09-09T05:53:49;12.23;;;2.85;;
24008;SDS011;12217;50.792;4.372;2022-09-09T05:56:17;15.13;;;3.10;;
24008;SDS011;12217;50.792;4.372;2022-09-09T05:58:44;11.73;;;2.83;;
24008;SDS011;12217;50.792;4.372;2022-09-09T06:01:18;11.02;;;2.67;;
24008;SDS011;12217;50.792;4.372;2022-09-09T06:03:49;10.55;;;2.85;;
24008;SDS011;12217;50.792;4.372;2022-09-09T06:06:16;11.23;;;3.30;;
24008;SDS011;12217;50.792;4.372;2022-09-09T06:08:45;16.20;;;3.58;;
24008;SDS011;12217;50.792;4.372;2022-09-09T06:11:12;9.40;;;2.80;;
24008;SDS011;12217;50.792;4.372;2022-09-09T06:13:43;12.73;;;3.08;;
24008;SDS011;12217;50.792;4.372;2022-09-09T06:16:09;13.65;;;3.25;;
24008;SDS011;12217;50.792;4.372;2022-09-09T06:18:36;14.50;;;2.85;;
24008;SDS011;12217;50.792;4.372;2022-09-09T06:21:03;10.32;;;2.80;;
24008;SDS011;12217;50.792;4.372;2022-09-09T06:23:31;10.48;;;2.88;;
24008;SDS011;12217;50.792;4.372;2022-09-09T06:26:20;11.13;;;2.72;;
24008;SDS011;12217;50.792;4.372;2022-09-09T06:28:48;9.85;;;2.65;;
24008;SDS011;12217;50.792;4.372;2022-09-09T06:31:16;9.07;;;2.67;;
24008;SDS011;12217;50.792;4.372;2022-09-09T06:33:43;8.93;;;2.50;;
24008;SDS011;12217;50.792;4.372;2022-09-09T06:36:19;12.38;;;3.00;;
24008;SDS011;12217;50.792;4.372;2022-09-09T06:38:58;10.38;;;2.60;;
24008;SDS011;12217;50.792;4.372;2022-09-09T06:41:26;13.85;;;3.08;;
24008;SDS011;12217;50.792;4.372;2022-09-09T06:43:53;12.35;;;3.25;;
24008;SDS011;12217;50.792;4.372;2022-09-09T06:46:25;11.43;;;2.97;;
24008;SDS011;12217;50.792;4.372;2022-09-09T06:48:53;13.73;;;3.20;;
24008;SDS011;12217;50.792;4.372;2022-09-09T06:51:24;7.43;;;2.80;;
24008;SDS011;12217;50.792;4.372;2022-09-09T06:53:52;9.57;;;2.30;;
24008;SDS011;12217;50.792;4.372;2022-09-09T06:56:38;12.63;;;2.85;;
24008;SDS011;12217;50.792;4.372;2022-09-09T06:59:08;9.82;;;3.13;;
24008;SDS011;12217;50.792;4.372;2022-09-09T07:01:39;11.68;;;3.28;;
24008;SDS011;12217;50.792;4.372;2022-09-09T07:04:06;14.88;;;2.75;;
24008;SDS011;12217;50.792;4.372;2022-09-09T07:06:37;13.40;;;2.63;;
24008;SDS011;12217;50.792;4.372;2022-09-09T07:09:08;10.77;;;2.70;;
24008;SDS011;12217;50.792;4.372;2022-09-09T07:11:39;11.43;;;3.08;;
24008;SDS011;12217;50.792;4.372;2022-09-09T07:14:07;9.32;;;3.03;;
24008;SDS011;12217;50.792;4.372;2022-09-09T07:16:33;9.05;;;2.50;;
24008;SDS011;12217;50.792;4.372;2022-09-09T07:19:02;11.10;;;2.58;;
24008;SDS011;12217;50.792;4.372;2022-09-09T07:21:29;11.75;;;2.88;;
24008;SDS011;12217;50.792;4.372;2022-09-09T07:23:56;11.52;;;2.50;;
24008;SDS011;12217;50.792;4.372;2022-09-09T07:26:23;13.00;;;2.92;;
24008;SDS011;12217;50.792;4.372;2022-09-09T07:28:51;10.88;;;2.58;;
24008;SDS011;12217;50.792;4.372;2022-09-09T07:31:19;10.20;;;2.50;;
24008;SDS011;12217;50.792;4.372;2022-09-09T07:33:47;11.13;;;3.03;;
24008;SDS011;12217;50.792;4.372;2022-09-09T07:36:14;11.27;;;3.05;;
24008;SDS011;12217;50.792;4.372;2022-09-09T07:38:58;14.73;;;3.25;;
24008;SDS011;12217;50.792;4.372;2022-09-09T07:41:33;10.52;;;2.38;;
24008;SDS011;12217;50.792;4.372;2022-09-09T07:44:07;12.52;;;2.90;;
24008;SDS011;12217;50.792;4.372;2022-09-09T07:46:35;8.02;;;2.47;;
24008;SDS011;12217;50.792;4.372;2022-09-09T07:49:02;10.18;;;3.05;;
24008;SDS011;12217;50.792;4.372;2022-09-09T07:51:29;12.25;;;3.38;;
24008;SDS011;12217;50.792;4.372;2022-09-09T07:54:00;12.10;;;3.92;;
24008;SDS011;12217;50.792;4.372;2022-09-09T07:56:28;11.02;;;3.03;;
24008;SDS011;12217;50.792;4.372;2022-09-09T07:58:55;10.38;;;3.20;;
24008;SDS011;12217;50.792;4.372;2022-09-09T08:01:29;16.38;;;3.88;;
24008;SDS011;12217;50.792;4.372;2022-09-09T08:03:57;10.45;;;3.28;;
24008;SDS011;12217;50.792;4.372;2022-09-09T08:06:29;7.03;;;2.90;;
24008;SDS011;12217;50.792;4.372;2022-09-09T08:08:58;14.68;;;3.05;;
24008;SDS011;12217;50.792;4.372;2022-09-09T08:11:24;7.43;;;2.63;;
24008;SDS011;12217;50.792;4.372;2022-09-09T08:13:52;12.38;;;3.10;;
24008;SDS011;12217;50.792;4.372;2022-09-09T08:16:19;10.00;;;2.88;;
24008;SDS011;12217;50.792;4.372;2022-09-09T08:18:50;12.20;;;2.67;;
24008;SDS011;12217;50.792;4.372;2022-09-09T08:21:21;11.00;;;3.05;;
24008;SDS011;12217;50.792;4.372;2022-09-09T08:23:50;10.18;;;3.33;;
24008;SDS011;12217;50.792;4.372;2022-09-09T08:26:21;9.18;;;2.80;;
24008;SDS011;12217;50.792;4.372;2022-09-09T08:28:52;10.88;;;2.92;;
24008;SDS011;12217;50.792;4.372;2022-09-09T08:31:20;10.97;;;3.60;;
24008;SDS011;12217;50.792;4.372;2022-09-09T08:33:55;12.98;;;3.28;;
24008;SDS011;12217;50.792;4.372;2022-09-09T08:36:25;10.43;;;3.00;;
24008;SDS011;12217;50.792;4.372;2022-09-09T08:38:54;12.32;;;3.13;;
24008;SDS011;12217;50.792;4.372;2022-09-09T08:41:29;13.40;;;3.10;;
24008;SDS011;12217;50.792;4.372;2022-09-09T08:44:18;12.50;;;3.28;;
24008;SDS011;12217;50.792;4.372;2022-09-09T08:47:16;9.40;;;3.17;;
24008;SDS011;12217;50.792;4.372;2022-09-09T08:50:23;12.23;;;3.58;;
24008;SDS011;12217;50.792;4.372;2022-09-09T09:03:34;10.82;;;3.00;;
24008;SDS011;12217;50.792;4.372;2022-09-09T09:11:39;11.98;;;4.25;;
24008;SDS011;12217;50.792;4.372;2022-09-09T09:14:20;11.07;;;3.10;;
24008;SDS011;12217;50.792;4.372;2022-09-09T09:16:56;7.47;;;2.97;;
24008;SDS011;12217;50.792;4.372;2022-09-09T09:19:24;9.60;;;3.40;;
24008;SDS011;12217;50.792;4.372;2022-09-09T09:27:13;10.10;;;2.88;;
24008;SDS011;12217;50.792;4.372;2022-09-09T09:29:40;9.53;;;2.97;;
24008;SDS011;12217;50.792;4.372;2022-09-09T09:32:10;11.50;;;3.55;;
24008;SDS011;12217;50.792;4.372;2022-09-09T09:34:41;9.52;;;3.15;;
24008;SDS011;12217;50.792;4.372;2022-09-09T09:37:12;9.30;;;3.50;;
24008;SDS011;12217;50.792;4.372;2022-09-09T09:39:45;10.75;;;3.72;;
24008;SDS011;12217;50.792;4.372;2022-09-09T09:42:13;9.45;;;3.10;;
24008;SDS011;12217;50.792;4.372;2022-09-09T09:44:42;10.43;;;3.22;;
24008;SDS011;12217;50.792;4.372;2022-09-09T09:47:19;14.07;;;3.30;;
24008;SDS011;12217;50.792;4.372;2022-09-09T09:49:56;10.02;;;3.55;;
24008;SDS011;12217;50.792;4.372;2022-09-09T09:52:28;9.95;;;3.70;;
24008;SDS011;12217;50.792;4.372;2022-09-09T09:54:55;10.27;;;3.40;;
24008;SDS011;12217;50.792;4.372;2022-09-09T09:57:26;9.57;;;3.40;;
24008;SDS011;12217;50.792;4.372;2022-09-09T10:00:03;10.07;;;3.55;;
24008;SDS011;12217;50.792;4.372;2022-09-09T10:07:43;10.63;;;3.35;;
24008;SDS011;12217;50.792;4.372;2022-09-09T10:10:20;10.18;;;3.28;;
24008;SDS011;12217;50.792;4.372;2022-09-09T10:32:36;8.00;;;2.78;;
24008;SDS011;12217;50.792;4.372;2022-09-09T10:37:58;10.10;;;3.20;;
24008;SDS011;12217;50.792;4.372;2022-09-09T10:40:32;7.57;;;3.00;;
24008;SDS011;12217;50.792;4.372;2022-09-09T10:56:54;9.77;;;3.08;;
24008;SDS011;12217;50.792;4.372;2022-09-09T10:59:25;7.90;;;3.10;;
24008;SDS011;12217;50.792;4.372;2022-09-09T11:02:40;8.75;;;2.65;;
24008;SDS011;12217;50.792;4.372;2022-09-09T11:04:53;8.45;;;2.53;;
24008;SDS011;12217;50.792;4.372;2022-09-09T11:07:41;14.38;;;3.25;;
24008;SDS011;12217;50.792;4.372;2022-09-09T11:10:22;7.22;;;3.03;;
24008;SDS011;12217;50.792;4.372;2022-09-09T11:13:11;11.77;;;3.45;;
24008;SDS011;12217;50.792;4.372;2022-09-09T11:15:46;8.80;;;2.72;;
24008;SDS011;12217;50.792;4.372;2022-09-09T11:18:20;10.48;;;2.72;;
24008;SDS011;12217;50.792;4.372;2022-09-09T11:20:49;8.90;;;2.60;;
24008;SDS011;12217;50.792;4.372;2022-09-09T11:23:42;8.70;;;2.50;;
24008;SDS011;12217;50.792;4.372;2022-09-09T11:26:16;9.75;;;2.60;;
24008;SDS011;12217;50.792;4.372;2022-09-09T11:39:43;7.07;;;2.47;;
24008;SDS011;12217;50.792;4.372;2022-09-09T11:44:38;7.05;;;2.22;;
24008;SDS011;12217;50.792;4.372;2022-09-09T11:47:15;6.78;;;2.40;;
24008;SDS011;12217;50.792;4.372;2022-09-09T11:50:09;9.23;;;2.20;;
24008;SDS011;12217;50.792;4.372;2022-09-09T11:53:03;6.78;;;1.98;;
24008;SDS011;12217;50.792;4.372;2022-09-09T11:55:38;8.75;;;2.20;;
24008;SDS011;12217;50.792;4.372;2022-09-09T12:00:37;9.00;;;2.55;;
24008;SDS011;12217;50.792;4.372;2022-09-09T12:03:55;7.55;;;2.55;;
24008;SDS011;12217;50.792;4.372;2022-09-09T12:06:08;6.80;;;2.53;;
24008;SDS011;12217;50.792;4.372;2022-09-09T12:08:57;6.40;;;2.25;;
24008;SDS011;12217;50.792;4.372;2022-09-09T12:11:30;6.72;;;2.67;;
24008;SDS011;12217;50.792;4.372;2022-09-09T12:13:59;4.88;;;2.22;;
24008;SDS011;12217;50.792;4.372;2022-09-09T12:16:34;8.68;;;2.65;;
24008;SDS011;12217;50.792;4.372;2022-09-09T12:19:12;7.75;;;2.00;;
24008;SDS011;12217;50.792;4.372;2022-09-09T12:21:44;5.63;;;2.10;;
24008;SDS011;12217;50.792;4.372;2022-09-09T12:24:17;8.50;;;2.17;;
24008;SDS011;12217;50.792;4.372;2022-09-09T12:27:04;4.82;;;2.05;;
24008;SDS011;12217;50.792;4.372;2022-09-09T12:32:23;5.63;;;2.08;;
24008;SDS011;12217;50.792;4.372;2022-09-09T12:34:54;8.20;;;2.00;;
24008;SDS011;12217;50.792;4.372;2022-09-09T12:37:52;6.53;;;2.33;;
24008;SDS011;12217;50.792;4.372;2022-09-09T12:40:30;6.90;;;1.73;;
24008;SDS011;12217;50.792;4.372;2022-09-09T12:43:00;10.02;;;2.20;;
24008;SDS011;12217;50.792;4.372;2022-09-09T12:45:46;5.97;;;1.92;;
24008;SDS011;12217;50.792;4.372;2022-09-09T12:48:15;11.20;;;2.17;;
24008;SDS011;12217;50.792;4.372;2022-09-09T12:50:45;8.30;;;1.70;;
24008;SDS011;12217;50.792;4.372;2022-09-09T12:55:52;5.30;;;1.58;;
24008;SDS011;12217;50.792;4.372;2022-09-09T12:58:21;4.20;;;1.80;;
24008;SDS011;12217;50.792;4.372;2022-09-09T13:00:54;6.88;;;1.75;;
24008;SDS011;12217;50.792;4.372;2022-09-09T13:03:21;7.05;;;1.80;;
24008;SDS011;12217;50.792;4.372;2022-09-09T13:05:48;6.63;;;1.88;;
24008;SDS011;12217;50.792;4.372;2022-09-09T13:08:14;7.38;;;1.90;;
24008;SDS011;12217;50.792;4.372;2022-09-09T13:10:56;7.70;;;1.67;;
24008;SDS011;12217;50.792;4.372;2022-09-09T13:13:50;3.95;;;1.48;;
24008;SDS011;12217;50.792;4.372;2022-09-09T13:16:19;3.50;;;1.45;;
24008;SDS011;12217;50.792;4.372;2022-09-09T13:18:57;6.25;;;1.98;;
24008;SDS011;12217;50.792;4.372;2022-09-09T13:21:32;7.28;;;1.92;;
24008;SDS011;12217;50.792;4.372;2022-09-09T13:24:03;4.00;;;1.30;;
24008;SDS011;12217;50.792;4.372;2022-09-09T13:27:24;4.50;;;1.30;;
24008;SDS011;12217;50.792;4.372;2022-09-09T13:29:54;2.42;;;1.30;;
24008;SDS011;12217;50.792;4.372;2022-09-09T13:32:22;4.57;;;1.38;;
24008;SDS011;12217;50.792;4.372;2022-09-09T13:34:52;3.25;;;1.20;;
24008;SDS011;12217;50.792;4.372;2022-09-09T13:37:24;4.43;;;1.25;;
24008;SDS011;12217;50.792;4.372;2022-09-09T13:39:58;4.20;;;1.40;;
24008;SDS011;12217;50.792;4.372;2022-09-09T13:42:25;4.07;;;1.27;;
24008;SDS011;12217;50.792;4.372;2022-09-09T13:44:53;4.85;;;1.63;;
24008;SDS011;12217;50.792;4.372;2022-09-09T13:47:22;3.67;;;1.40;;
24008;SDS011;12217;50.792;4.372;2022-09-09T13:50:09;3.88;;;1.27;;
24008;SDS011;12217;50.792;4.372;2022-09-09T13:52:57;2.33;;;1.33;;
24008;SDS011;12217;50.792;4.372;2022-09-09T13:55:24;4.60;;;1.67;;
24008;SDS011;12217;50.792;4.372;2022-09-09T13:57:55;6.28;;;1.52;;
24008;SDS011;12217;50.792;4.372;2022-09-09T14:00:26;4.50;;;1.60;;
24008;SDS011;12217;50.792;4.372;2022-09-09T14:02:53;2.83;;;1.48;;
24008;SDS011;12217;50.792;4.372;2022-09-09T14:05:20;4.20;;;1.67;;
24008;SDS011;12217;50.792;4.372;2022-09-09T14:07:47;5.60;;;1.73;;
24008;SDS011;12217;50.792;4.372;2022-09-09T14:10:14;4.05;;;1.70;;
24008;SDS011;12217;50.792;4.372;2022-09-09T14:12:40;4.47;;;1.30;;
24008;SDS011;12217;50.792;4.372;2022-09-09T14:15:06;5.47;;;1.75;;
24008;SDS011;12217;50.792;4.372;2022-09-09T14:17:33;4.07;;;1.55;;
24008;SDS011;12217;50.792;4.372;2022-09-09T14:20:02;5.53;;;1.63;;
24008;SDS011;12217;50.792;4.372;2022-09-09T14:22:32;4.20;;;1.80;;
24008;SDS011;12217;50.792;4.372;2022-09-09T14:24:58;4.47;;;1.75;;
24008;SDS011;12217;50.792;4.372;2022-09-09T14:27:23;5.50;;;1.70;;
24008;SDS011;12217;50.792;4.372;2022-09-09T14:29:51;5.72;;;1.52;;
24008;SDS011;12217;50.792;4.372;2022-09-09T14:32:17;4.45;;;2.17;;
24008;SDS011;12217;50.792;4.372;2022-09-09T14:34:43;4.15;;;1.67;;
24008;SDS011;12217;50.792;4.372;2022-09-09T14:37:08;4.00;;;1.40;;
24008;SDS011;12217;50.792;4.372;2022-09-09T14:39:34;4.63;;;1.70;;
24008;SDS011;12217;50.792;4.372;2022-09-09T14:42:00;3.67;;;1.75;;
24008;SDS011;12217;50.792;4.372;2022-09-09T14:44:27;4.43;;;1.67;;
24008;SDS011;12217;50.792;4.372;2022-09-09T14:46:53;4.25;;;1.70;;
24008;SDS011;12217;50.792;4.372;2022-09-09T14:49:19;7.93;;;1.77;;
24008;SDS011;12217;50.792;4.372;2022-09-09T14:51:45;5.70;;;1.40;;
24008;SDS011;12217;50.792;4.372;2022-09-09T14:54:10;4.20;;;1.65;;
24008;SDS011;12217;50.792;4.372;2022-09-09T14:56:36;3.58;;;1.63;;
24008;SDS011;12217;50.792;4.372;2022-09-09T14:59:02;4.85;;;1.80;;
24008;SDS011;12217;50.792;4.372;2022-09-09T15:01:29;4.53;;;2.83;;
24008;SDS011;12217;50.792;4.372;2022-09-09T15:06:23;6.38;;;1.70;;
24008;SDS011;12217;50.792;4.372;2022-09-09T15:08:51;7.18;;;2.15;;
24008;SDS011;12217;50.792;4.372;2022-09-09T15:11:18;5.38;;;1.52;;
24008;SDS011;12217;50.792;4.372;2022-09-09T15:13:45;6.35;;;1.83;;
24008;SDS011;12217;50.792;4.372;2022-09-09T15:16:13;3.35;;;1.73;;
24008;SDS011;12217;50.792;4.372;2022-09-09T15:18:40;6.95;;;1.90;;
24008;SDS011;12217;50.792;4.372;2022-09-09T15:21:13;4.57;;;1.63;;
24008;SDS011;12217;50.792;4.372;2022-09-09T15:23:41;4.95;;;2.03;;
24008;SDS011;12217;50.792;4.372;2022-09-09T15:26:07;7.50;;;2.35;;
24008;SDS011;12217;50.792;4.372;2022-09-09T15:28:34;3.92;;;1.83;;
24008;SDS011;12217;50.792;4.372;2022-09-09T15:31:04;5.90;;;2.20;;
24008;SDS011;12217;50.792;4.372;2022-09-09T15:33:32;4.25;;;1.63;;
24008;SDS011;12217;50.792;4.372;2022-09-09T15:35:58;7.35;;;2.05;;
24008;SDS011;12217;50.792;4.372;2022-09-09T15:38:24;4.00;;;1.45;;
24008;SDS011;12217;50.792;4.372;2022-09-09T15:40:53;7.88;;;1.60;;
24008;SDS011;12217;50.792;4.372;2022-09-09T15:43:20;3.95;;;1.40;;
24008;SDS011;12217;50.792;4.372;2022-09-09T15:45:48;4.38;;;1.60;;
24008;SDS011;12217;50.792;4.372;2022-09-09T15:48:20;6.10;;;1.70;;
24008;SDS011;12217;50.792;4.372;2022-09-09T15:51:02;5.75;;;1.65;;
24008;SDS011;12217;50.792;4.372;2022-09-09T15:53:28;7.30;;;1.63;;
24008;SDS011;12217;50.792;4.372;2022-09-09T15:55:57;5.72;;;1.80;;
24008;SDS011;12217;50.792;4.372;2022-09-09T15:58:24;6.30;;;1.55;;
24008;SDS011;12217;50.792;4.372;2022-09-09T16:00:49;5.05;;;1.70;;
24008;SDS011;12217;50.792;4.372;2022-09-09T16:03:16;5.60;;;1.58;;
24008;SDS011;12217;50.792;4.372;2022-09-09T16:05:41;5.05;;;1.70;;
24008;SDS011;12217;50.792;4.372;2022-09-09T16:08:08;4.38;;;1.73;;
24008;SDS011;12217;50.792;4.372;2022-09-09T16:10:34;5.32;;;1.77;;
24008;SDS011;12217;50.792;4.372;2022-09-09T16:12:59;6.15;;;1.73;;
24008;SDS011;12217;50.792;4.372;2022-09-09T16:15:25;5.50;;;1.70;;
24008;SDS011;12217;50.792;4.372;2022-09-09T16:17:53;5.32;;;1.80;;
24008;SDS011;12217;50.792;4.372;2022-09-09T16:20:18;5.72;;;1.80;;
24008;SDS011;12217;50.792;4.372;2022-09-09T16:22:45;4.32;;;1.88;;
24008;SDS011;12217;50.792;4.372;2022-09-09T16:25:11;6.75;;;2.10;;
24008;SDS011;12217;50.792;4.372;2022-09-09T16:27:36;7.45;;;2.33;;
24008;SDS011;12217;50.792;4.372;2022-09-09T16:30:02;4.68;;;1.42;;
24008;SDS011;12217;50.792;4.372;2022-09-09T16:32:28;6.32;;;1.80;;
24008;SDS011;12217;50.792;4.372;2022-09-09T16:34:54;3.05;;;1.35;;
24008;SDS011;12217;50.792;4.372;2022-09-09T16:37:21;10.18;;;1.48;;
24008;SDS011;12217;50.792;4.372;2022-09-09T16:39:46;6.10;;;2.38;;
24008;SDS011;12217;50.792;4.372;2022-09-09T16:42:12;8.05;;;4.15;;
24008;SDS011;12217;50.792;4.372;2022-09-09T16:44:38;3.38;;;1.85;;
24008;SDS011;12217;50.792;4.372;2022-09-09T16:47:03;2.90;;;1.30;;
24008;SDS011;12217;50.792;4.372;2022-09-09T16:49:29;4.40;;;2.33;;
24008;SDS011;12217;50.792;4.372;2022-09-09T16:51:56;6.20;;;5.00;;
24008;SDS011;12217;50.792;4.372;2022-09-09T16:54:23;6.50;;;2.15;;
24008;SDS011;12217;50.792;4.372;2022-09-09T16:56:50;3.70;;;1.95;;
24008;SDS011;12217;50.792;4.372;2022-09-09T16:59:17;2.17;;;1.38;;
24008;SDS011;12217;50.792;4.372;2022-09-09T17:01:44;5.40;;;1.80;;
24008;SDS011;12217;50.792;4.372;2022-09-09T17:04:15;4.72;;;1.73;;
24008;SDS011;12217;50.792;4.372;2022-09-09T17:06:46;5.63;;;1.60;;
24008;SDS011;12217;50.792;4.372;2022-09-09T17:09:14;10.15;;;3.20;;
24008;SDS011;12217;50.792;4.372;2022-09-09T17:11:40;5.72;;;2.13;;
24008;SDS011;12217;50.792;4.372;2022-09-09T17:14:06;6.55;;;1.98;;
24008;SDS011;12217;50.792;4.372;2022-09-09T17:16:34;3.45;;;1.80;;